sensor_id;sensor_type;location;lat;lon;timestamp;P1;durP1;ratioP1;P2;durP2;ratioP2
5616;SDS011;2830;50.656;7.568;2024-02-26T00:00:09;1.20;;;0.60;;
5616;SDS011;2830;50.656;7.568;2024-02-26T00:02:37;1.30;;;0.60;;
5616;SDS011;2830;50.656;7.568;2024-02-26T00:05:05;2.10;;;0.70;;
5616;SDS011;2830;50.656;7.568;2024-02-26T00:07:33;1.70;;;0.40;;
5616;SDS011;2830;50.656;7.568;2024-02-26T00:10:00;1.37;;;0.80;;
5616;SDS011;2830;50.656;7.568;2024-02-26T00:12:27;2.37;;;0.70;;
5616;SDS011;2830;50.656;7.568;2024-02-26T00:14:54;1.37;;;0.57;;
5616;SDS011;2830;50.656;7.568;2024-02-26T00:17:24;2.37;;;0.80;;
5616;SDS011;2830;50.656;7.568;2024-02-26T00:19:51;1.00;;;0.52;;
5616;SDS011;2830;50.656;7.568;2024-02-26T00:22:18;1.47;;;0.67;;
5616;SDS011;2830;50.656;7.568;2024-02-26T00:24:45;1.50;;;0.60;;
5616;SDS011;2830;50.656;7.568;2024-02-26T00:27:11;1.73;;;0.50;;
5616;SDS011;2830;50.656;7.568;2024-02-26T00:29:38;4.13;;;0.70;;
5616;SDS011;2830;50.656;7.568;2024-02-26T00:32:05;1.20;;;0.57;;
5616;SDS011;2830;50.656;7.568;2024-02-26T00:34:32;1.20;;;0.60;;
5616;SDS011;2830;50.656;7.568;2024-02-26T00:36:59;1.63;;;0.80;;
5616;SDS011;2830;50.656;7.568;2024-02-26T00:39:26;1.67;;;0.70;;
5616;SDS011;2830;50.656;7.568;2024-02-26T00:41:54;1.10;;;0.50;;
5616;SDS011;2830;50.656;7.568;2024-02-26T00:44:21;1.13;;;0.60;;
5616;SDS011;2830;50.656;7.568;2024-02-26T00:46:48;1.33;;;0.60;;
5616;SDS011;2830;50.656;7.568;2024-02-26T00:49:15;1.40;;;0.50;;
5616;SDS011;2830;50.656;7.568;2024-02-26T00:51:42;2.90;;;0.40;;
5616;SDS011;2830;50.656;7.568;2024-02-26T00:54:08;1.20;;;0.50;;
5616;SDS011;2830;50.656;7.568;2024-02-26T00:56:35;1.57;;;0.60;;
5616;SDS011;2830;50.656;7.568;2024-02-26T00:59:02;1.77;;;0.80;;
5616;SDS011;2830;50.656;7.568;2024-02-26T01:01:29;1.10;;;0.50;;
5616;SDS011;2830;50.656;7.568;2024-02-26T01:03:56;1.77;;;0.97;;
5616;SDS011;2830;50.656;7.568;2024-02-26T01:06:23;1.00;;;0.57;;
5616;SDS011;2830;50.656;7.568;2024-02-26T01:08:50;2.00;;;0.80;;
5616;SDS011;2830;50.656;7.568;2024-02-26T01:11:17;1.90;;;0.50;;
5616;SDS011;2830;50.656;7.568;2024-02-26T01:13:44;1.40;;;0.60;;
5616;SDS011;2830;50.656;7.568;2024-02-26T01:16:11;1.50;;;0.63;;
5616;SDS011;2830;50.656;7.568;2024-02-26T01:18:38;1.57;;;0.70;;
5616;SDS011;2830;50.656;7.568;2024-02-26T01:21:05;1.67;;;0.52;;
5616;SDS011;2830;50.656;7.568;2024-02-26T01:23:35;1.27;;;0.63;;
5616;SDS011;2830;50.656;7.568;2024-02-26T01:26:02;1.20;;;0.60;;
5616;SDS011;2830;50.656;7.568;2024-02-26T01:28:30;2.15;;;0.68;;
5616;SDS011;2830;50.656;7.568;2024-02-26T01:30:57;1.67;;;0.65;;
5616;SDS011;2830;50.656;7.568;2024-02-26T01:33:25;1.00;;;0.50;;
5616;SDS011;2830;50.656;7.568;2024-02-26T01:35:52;1.17;;;0.60;;
5616;SDS011;2830;50.656;7.568;2024-02-26T01:38:19;1.08;;;0.50;;
5616;SDS011;2830;50.656;7.568;2024-02-26T01:40:46;1.08;;;0.60;;
5616;SDS011;2830;50.656;7.568;2024-02-26T01:43:13;1.10;;;0.60;;
5616;SDS011;2830;50.656;7.568;2024-02-26T01:45:40;1.10;;;0.70;;
5616;SDS011;2830;50.656;7.568;2024-02-26T01:48:07;2.25;;;1.00;;
5616;SDS011;2830;50.656;7.568;2024-02-26T01:50:34;2.50;;;0.80;;
5616;SDS011;2830;50.656;7.568;2024-02-26T01:53:02;2.85;;;1.00;;
5616;SDS011;2830;50.656;7.568;2024-02-26T01:55:30;2.10;;;0.95;;
5616;SDS011;2830;50.656;7.568;2024-02-26T01:57:57;2.83;;;0.98;;
5616;SDS011;2830;50.656;7.568;2024-02-26T02:00:24;1.30;;;0.70;;
5616;SDS011;2830;50.656;7.568;2024-02-26T02:02:52;1.00;;;0.60;;
5616;SDS011;2830;50.656;7.568;2024-02-26T02:05:21;1.25;;;0.63;;
5616;SDS011;2830;50.656;7.568;2024-02-26T02:07:48;1.65;;;0.70;;
5616;SDS011;2830;50.656;7.568;2024-02-26T02:10:16;1.00;;;0.50;;
5616;SDS011;2830;50.656;7.568;2024-02-26T02:12:44;1.60;;;0.60;;
5616;SDS011;2830;50.656;7.568;2024-02-26T02:15:11;1.20;;;0.60;;
5616;SDS011;2830;50.656;7.568;2024-02-26T02:17:38;1.45;;;0.80;;
5616;SDS011;2830;50.656;7.568;2024-02-26T02:20:09;1.17;;;0.70;;
5616;SDS011;2830;50.656;7.568;2024-02-26T02:22:41;1.20;;;0.70;;
5616;SDS011;2830;50.656;7.568;2024-02-26T02:25:08;1.55;;;0.60;;
5616;SDS011;2830;50.656;7.568;2024-02-26T02:27:35;1.93;;;0.70;;
5616;SDS011;2830;50.656;7.568;2024-02-26T02:30:02;1.20;;;0.43;;
5616;SDS011;2830;50.656;7.568;2024-02-26T02:32:29;2.17;;;0.80;;
5616;SDS011;2830;50.656;7.568;2024-02-26T02:34:57;1.30;;;0.60;;
5616;SDS011;2830;50.656;7.568;2024-02-26T02:37:24;1.50;;;0.80;;
5616;SDS011;2830;50.656;7.568;2024-02-26T02:39:51;1.60;;;0.68;;
5616;SDS011;2830;50.656;7.568;2024-02-26T02:42:20;1.17;;;0.50;;
5616;SDS011;2830;50.656;7.568;2024-02-26T02:44:47;5.65;;;0.85;;
5616;SDS011;2830;50.656;7.568;2024-02-26T02:47:14;1.33;;;0.70;;
5616;SDS011;2830;50.656;7.568;2024-02-26T02:49:41;1.20;;;0.60;;
5616;SDS011;2830;50.656;7.568;2024-02-26T02:52:08;1.83;;;0.73;;
5616;SDS011;2830;50.656;7.568;2024-02-26T02:54:35;2.03;;;0.70;;
5616;SDS011;2830;50.656;7.568;2024-02-26T02:57:03;1.45;;;0.60;;
5616;SDS011;2830;50.656;7.568;2024-02-26T02:59:30;1.15;;;0.60;;
5616;SDS011;2830;50.656;7.568;2024-02-26T03:01:57;1.40;;;0.60;;
5616;SDS011;2830;50.656;7.568;2024-02-26T03:04:23;1.08;;;0.63;;
5616;SDS011;2830;50.656;7.568;2024-02-26T03:06:50;2.50;;;0.63;;
5616;SDS011;2830;50.656;7.568;2024-02-26T03:09:18;1.02;;;0.40;;
5616;SDS011;2830;50.656;7.568;2024-02-26T03:11:45;1.00;;;0.50;;
5616;SDS011;2830;50.656;7.568;2024-02-26T03:14:12;1.35;;;0.77;;
5616;SDS011;2830;50.656;7.568;2024-02-26T03:16:38;1.42;;;0.68;;
5616;SDS011;2830;50.656;7.568;2024-02-26T03:19:05;1.00;;;0.50;;
5616;SDS011;2830;50.656;7.568;2024-02-26T03:21:32;1.20;;;0.70;;
5616;SDS011;2830;50.656;7.568;2024-02-26T03:23:59;1.30;;;0.60;;
5616;SDS011;2830;50.656;7.568;2024-02-26T03:26:26;1.63;;;0.90;;
5616;SDS011;2830;50.656;7.568;2024-02-26T03:28:53;2.30;;;1.00;;
5616;SDS011;2830;50.656;7.568;2024-02-26T03:31:20;1.20;;;0.50;;
5616;SDS011;2830;50.656;7.568;2024-02-26T03:33:48;1.05;;;0.50;;
5616;SDS011;2830;50.656;7.568;2024-02-26T03:36:15;1.00;;;0.52;;
5616;SDS011;2830;50.656;7.568;2024-02-26T03:38:42;1.30;;;0.63;;
5616;SDS011;2830;50.656;7.568;2024-02-26T03:41:09;1.27;;;0.50;;
5616;SDS011;2830;50.656;7.568;2024-02-26T03:43:36;1.95;;;0.70;;
5616;SDS011;2830;50.656;7.568;2024-02-26T03:46:02;1.42;;;0.68;;
5616;SDS011;2830;50.656;7.568;2024-02-26T03:48:29;0.90;;;0.50;;
5616;SDS011;2830;50.656;7.568;2024-02-26T03:50:56;1.75;;;0.75;;
5616;SDS011;2830;50.656;7.568;2024-02-26T03:53:23;1.80;;;0.70;;
5616;SDS011;2830;50.656;7.568;2024-02-26T03:55:50;1.38;;;0.85;;
5616;SDS011;2830;50.656;7.568;2024-02-26T03:58:18;1.73;;;1.00;;
5616;SDS011;2830;50.656;7.568;2024-02-26T04:00:45;1.30;;;0.60;;
5616;SDS011;2830;50.656;7.568;2024-02-26T04:03:14;1.55;;;0.70;;
5616;SDS011;2830;50.656;7.568;2024-02-26T04:05:41;1.80;;;0.90;;
5616;SDS011;2830;50.656;7.568;2024-02-26T04:08:08;1.25;;;0.73;;
5616;SDS011;2830;50.656;7.568;2024-02-26T04:10:36;2.35;;;0.98;;
5616;SDS011;2830;50.656;7.568;2024-02-26T04:13:07;1.67;;;1.00;;
5616;SDS011;2830;50.656;7.568;2024-02-26T04:15:34;1.48;;;0.70;;
5616;SDS011;2830;50.656;7.568;2024-02-26T04:18:01;1.52;;;0.90;;
5616;SDS011;2830;50.656;7.568;2024-02-26T04:20:29;1.23;;;0.85;;
5616;SDS011;2830;50.656;7.568;2024-02-26T04:22:56;2.00;;;0.85;;
5616;SDS011;2830;50.656;7.568;2024-02-26T04:25:23;1.95;;;0.85;;
5616;SDS011;2830;50.656;7.568;2024-02-26T04:27:50;2.05;;;1.10;;
5616;SDS011;2830;50.656;7.568;2024-02-26T04:30:16;1.55;;;0.82;;
5616;SDS011;2830;50.656;7.568;2024-02-26T04:32:44;1.40;;;1.00;;
5616;SDS011;2830;50.656;7.568;2024-02-26T04:35:11;1.75;;;0.85;;
5616;SDS011;2830;50.656;7.568;2024-02-26T04:37:38;2.05;;;1.27;;
5616;SDS011;2830;50.656;7.568;2024-02-26T04:40:05;1.88;;;1.00;;
5616;SDS011;2830;50.656;7.568;2024-02-26T04:42:32;1.65;;;1.10;;
5616;SDS011;2830;50.656;7.568;2024-02-26T04:44:59;2.88;;;2.25;;
5616;SDS011;2830;50.656;7.568;2024-02-26T04:47:26;2.00;;;0.95;;
5616;SDS011;2830;50.656;7.568;2024-02-26T04:49:53;1.98;;;1.05;;
5616;SDS011;2830;50.656;7.568;2024-02-26T04:52:20;1.98;;;1.17;;
5616;SDS011;2830;50.656;7.568;2024-02-26T04:54:47;1.40;;;0.98;;
5616;SDS011;2830;50.656;7.568;2024-02-26T04:57:14;3.40;;;1.08;;
5616;SDS011;2830;50.656;7.568;2024-02-26T04:59:41;1.33;;;0.93;;
5616;SDS011;2830;50.656;7.568;2024-02-26T05:02:09;2.15;;;0.77;;
5616;SDS011;2830;50.656;7.568;2024-02-26T05:04:36;1.55;;;1.20;;
5616;SDS011;2830;50.656;7.568;2024-02-26T05:07:03;1.98;;;1.20;;
5616;SDS011;2830;50.656;7.568;2024-02-26T05:09:31;2.00;;;1.10;;
5616;SDS011;2830;50.656;7.568;2024-02-26T05:11:58;1.13;;;0.80;;
5616;SDS011;2830;50.656;7.568;2024-02-26T05:14:25;3.08;;;1.40;;
5616;SDS011;2830;50.656;7.568;2024-02-26T05:16:52;1.80;;;1.48;;
5616;SDS011;2830;50.656;7.568;2024-02-26T05:19:19;4.20;;;1.90;;
5616;SDS011;2830;50.656;7.568;2024-02-26T05:21:46;2.45;;;1.98;;
5616;SDS011;2830;50.656;7.568;2024-02-26T05:24:15;1.77;;;1.25;;
5616;SDS011;2830;50.656;7.568;2024-02-26T05:26:45;2.75;;;2.10;;
5616;SDS011;2830;50.656;7.568;2024-02-26T05:29:12;2.75;;;1.88;;
5616;SDS011;2830;50.656;7.568;2024-02-26T05:31:39;2.10;;;1.27;;
5616;SDS011;2830;50.656;7.568;2024-02-26T05:34:08;4.13;;;2.03;;
5616;SDS011;2830;50.656;7.568;2024-02-26T05:36:35;5.00;;;1.20;;
5616;SDS011;2830;50.656;7.568;2024-02-26T05:39:02;4.75;;;1.60;;
5616;SDS011;2830;50.656;7.568;2024-02-26T05:41:30;1.20;;;0.80;;
5616;SDS011;2830;50.656;7.568;2024-02-26T05:43:57;2.30;;;1.27;;
5616;SDS011;2830;50.656;7.568;2024-02-26T05:46:25;2.50;;;1.15;;
5616;SDS011;2830;50.656;7.568;2024-02-26T05:48:53;3.05;;;1.30;;
5616;SDS011;2830;50.656;7.568;2024-02-26T05:51:20;1.83;;;0.95;;
5616;SDS011;2830;50.656;7.568;2024-02-26T05:53:48;3.30;;;1.75;;
5616;SDS011;2830;50.656;7.568;2024-02-26T05:56:24;2.13;;;1.38;;
5616;SDS011;2830;50.656;7.568;2024-02-26T05:58:51;1.83;;;1.05;;
5616;SDS011;2830;50.656;7.568;2024-02-26T06:01:19;2.20;;;1.30;;
5616;SDS011;2830;50.656;7.568;2024-02-26T06:03:46;2.95;;;1.65;;
5616;SDS011;2830;50.656;7.568;2024-02-26T06:06:13;2.67;;;1.10;;
5616;SDS011;2830;50.656;7.568;2024-02-26T06:08:42;3.38;;;1.08;;
5616;SDS011;2830;50.656;7.568;2024-02-26T06:11:09;1.75;;;1.13;;
5616;SDS011;2830;50.656;7.568;2024-02-26T06:13:36;5.43;;;2.30;;
5616;SDS011;2830;50.656;7.568;2024-02-26T06:16:03;3.60;;;1.80;;
5616;SDS011;2830;50.656;7.568;2024-02-26T06:18:30;3.28;;;2.03;;
5616;SDS011;2830;50.656;7.568;2024-02-26T06:20:58;3.80;;;2.60;;
5616;SDS011;2830;50.656;7.568;2024-02-26T06:23:25;2.90;;;2.10;;
5616;SDS011;2830;50.656;7.568;2024-02-26T06:25:52;3.55;;;2.35;;
5616;SDS011;2830;50.656;7.568;2024-02-26T06:28:19;2.75;;;1.70;;
5616;SDS011;2830;50.656;7.568;2024-02-26T06:30:46;2.05;;;1.60;;
5616;SDS011;2830;50.656;7.568;2024-02-26T06:33:13;3.85;;;2.58;;
5616;SDS011;2830;50.656;7.568;2024-02-26T06:35:41;7.57;;;3.42;;
5616;SDS011;2830;50.656;7.568;2024-02-26T06:38:08;3.33;;;2.85;;
5616;SDS011;2830;50.656;7.568;2024-02-26T06:40:36;2.95;;;2.47;;
5616;SDS011;2830;50.656;7.568;2024-02-26T06:43:03;3.83;;;1.95;;
5616;SDS011;2830;50.656;7.568;2024-02-26T06:45:29;2.05;;;1.58;;
5616;SDS011;2830;50.656;7.568;2024-02-26T06:47:57;2.83;;;1.90;;
5616;SDS011;2830;50.656;7.568;2024-02-26T06:50:24;2.60;;;1.73;;
5616;SDS011;2830;50.656;7.568;2024-02-26T06:52:51;2.53;;;2.30;;
5616;SDS011;2830;50.656;7.568;2024-02-26T06:55:18;2.83;;;2.35;;
5616;SDS011;2830;50.656;7.568;2024-02-26T06:57:45;2.47;;;1.73;;
5616;SDS011;2830;50.656;7.568;2024-02-26T07:00:12;2.90;;;1.73;;
5616;SDS011;2830;50.656;7.568;2024-02-26T07:02:44;3.55;;;2.40;;
5616;SDS011;2830;50.656;7.568;2024-02-26T07:05:11;3.50;;;2.40;;
5616;SDS011;2830;50.656;7.568;2024-02-26T07:07:39;11.05;;;6.10;;
5616;SDS011;2830;50.656;7.568;2024-02-26T07:10:06;13.85;;;5.55;;
5616;SDS011;2830;50.656;7.568;2024-02-26T07:12:34;8.70;;;4.72;;
5616;SDS011;2830;50.656;7.568;2024-02-26T07:15:01;4.30;;;2.47;;
5616;SDS011;2830;50.656;7.568;2024-02-26T07:17:29;2.55;;;1.40;;
5616;SDS011;2830;50.656;7.568;2024-02-26T07:19:56;2.20;;;1.30;;
5616;SDS011;2830;50.656;7.568;2024-02-26T07:22:23;2.65;;;1.55;;
5616;SDS011;2830;50.656;7.568;2024-02-26T07:24:50;4.53;;;1.30;;
5616;SDS011;2830;50.656;7.568;2024-02-26T07:27:18;3.42;;;2.20;;
5616;SDS011;2830;50.656;7.568;2024-02-26T07:29:47;3.00;;;2.10;;
5616;SDS011;2830;50.656;7.568;2024-02-26T07:32:14;2.67;;;1.60;;
5616;SDS011;2830;50.656;7.568;2024-02-26T07:34:42;2.38;;;1.65;;
5616;SDS011;2830;50.656;7.568;2024-02-26T07:37:11;2.50;;;1.52;;
5616;SDS011;2830;50.656;7.568;2024-02-26T07:39:38;2.90;;;1.85;;
5616;SDS011;2830;50.656;7.568;2024-02-26T07:42:05;3.65;;;1.90;;
5616;SDS011;2830;50.656;7.568;2024-02-26T07:44:33;2.97;;;1.98;;
5616;SDS011;2830;50.656;7.568;2024-02-26T07:47:00;6.20;;;2.03;;
5616;SDS011;2830;50.656;7.568;2024-02-26T07:49:28;2.95;;;1.35;;
5616;SDS011;2830;50.656;7.568;2024-02-26T07:51:55;1.65;;;1.45;;
5616;SDS011;2830;50.656;7.568;2024-02-26T07:54:24;2.65;;;1.60;;
5616;SDS011;2830;50.656;7.568;2024-02-26T07:56:51;2.13;;;1.70;;
5616;SDS011;2830;50.656;7.568;2024-02-26T07:59:19;3.65;;;2.38;;
5616;SDS011;2830;50.656;7.568;2024-02-26T08:01:49;5.40;;;3.50;;
5616;SDS011;2830;50.656;7.568;2024-02-26T08:04:24;3.80;;;2.17;;
5616;SDS011;2830;50.656;7.568;2024-02-26T08:06:53;2.83;;;1.73;;
5616;SDS011;2830;50.656;7.568;2024-02-26T08:09:20;3.58;;;2.05;;
5616;SDS011;2830;50.656;7.568;2024-02-26T08:11:47;4.30;;;2.80;;
5616;SDS011;2830;50.656;7.568;2024-02-26T08:14:14;2.90;;;2.00;;
5616;SDS011;2830;50.656;7.568;2024-02-26T08:16:41;3.42;;;2.28;;
5616;SDS011;2830;50.656;7.568;2024-02-26T08:19:08;7.07;;;3.72;;
5616;SDS011;2830;50.656;7.568;2024-02-26T08:21:36;3.70;;;2.13;;
5616;SDS011;2830;50.656;7.568;2024-02-26T08:24:04;3.20;;;2.03;;
5616;SDS011;2830;50.656;7.568;2024-02-26T08:26:31;3.22;;;1.90;;
5616;SDS011;2830;50.656;7.568;2024-02-26T08:28:58;3.83;;;1.80;;
5616;SDS011;2830;50.656;7.568;2024-02-26T08:31:25;3.88;;;2.53;;
5616;SDS011;2830;50.656;7.568;2024-02-26T08:33:53;3.80;;;2.88;;
5616;SDS011;2830;50.656;7.568;2024-02-26T08:36:20;4.07;;;2.90;;
5616;SDS011;2830;50.656;7.568;2024-02-26T08:38:47;8.88;;;3.88;;
5616;SDS011;2830;50.656;7.568;2024-02-26T08:41:14;2.72;;;1.88;;
5616;SDS011;2830;50.656;7.568;2024-02-26T08:43:41;4.85;;;2.08;;
5616;SDS011;2830;50.656;7.568;2024-02-26T08:46:08;3.10;;;1.85;;
5616;SDS011;2830;50.656;7.568;2024-02-26T08:48:36;4.45;;;2.20;;
5616;SDS011;2830;50.656;7.568;2024-02-26T08:51:08;2.70;;;2.00;;
5616;SDS011;2830;50.656;7.568;2024-02-26T08:53:36;3.33;;;2.15;;
5616;SDS011;2830;50.656;7.568;2024-02-26T08:56:09;3.10;;;2.15;;
5616;SDS011;2830;50.656;7.568;2024-02-26T08:58:37;2.20;;;1.42;;
5616;SDS011;2830;50.656;7.568;2024-02-26T09:01:04;3.00;;;1.92;;
5616;SDS011;2830;50.656;7.568;2024-02-26T09:03:31;2.70;;;1.70;;
5616;SDS011;2830;50.656;7.568;2024-02-26T09:05:58;5.13;;;2.40;;
5616;SDS011;2830;50.656;7.568;2024-02-26T09:08:26;3.00;;;2.22;;
5616;SDS011;2830;50.656;7.568;2024-02-26T09:10:52;3.40;;;2.42;;
5616;SDS011;2830;50.656;7.568;2024-02-26T09:13:19;2.97;;;1.50;;
5616;SDS011;2830;50.656;7.568;2024-02-26T09:15:46;3.15;;;1.80;;
5616;SDS011;2830;50.656;7.568;2024-02-26T09:18:13;4.70;;;1.90;;
5616;SDS011;2830;50.656;7.568;2024-02-26T09:20:41;3.47;;;1.95;;
5616;SDS011;2830;50.656;7.568;2024-02-26T09:23:08;6.13;;;2.00;;
5616;SDS011;2830;50.656;7.568;2024-02-26T09:25:36;3.20;;;1.77;;
5616;SDS011;2830;50.656;7.568;2024-02-26T09:28:03;3.53;;;1.73;;
5616;SDS011;2830;50.656;7.568;2024-02-26T09:30:30;2.58;;;1.70;;
5616;SDS011;2830;50.656;7.568;2024-02-26T09:32:57;2.75;;;1.90;;
5616;SDS011;2830;50.656;7.568;2024-02-26T09:35:24;2.77;;;1.77;;
5616;SDS011;2830;50.656;7.568;2024-02-26T09:37:52;2.25;;;1.35;;
5616;SDS011;2830;50.656;7.568;2024-02-26T09:40:20;2.20;;;1.30;;
5616;SDS011;2830;50.656;7.568;2024-02-26T09:42:48;2.87;;;1.57;;
5616;SDS011;2830;50.656;7.568;2024-02-26T09:45:20;6.05;;;2.15;;
5616;SDS011;2830;50.656;7.568;2024-02-26T09:47:49;3.50;;;1.90;;
5616;SDS011;2830;50.656;7.568;2024-02-26T09:50:17;3.10;;;1.90;;
5616;SDS011;2830;50.656;7.568;2024-02-26T09:52:44;2.67;;;2.17;;
5616;SDS011;2830;50.656;7.568;2024-02-26T09:55:11;3.40;;;2.22;;
5616;SDS011;2830;50.656;7.568;2024-02-26T09:57:38;6.50;;;2.30;;
5616;SDS011;2830;50.656;7.568;2024-02-26T10:00:14;5.03;;;2.50;;
5616;SDS011;2830;50.656;7.568;2024-02-26T10:02:45;3.27;;;2.27;;
5616;SDS011;2830;50.656;7.568;2024-02-26T10:05:14;3.53;;;2.27;;
5616;SDS011;2830;50.656;7.568;2024-02-26T10:07:45;3.28;;;1.92;;
5616;SDS011;2830;50.656;7.568;2024-02-26T10:10:13;8.57;;;4.80;;
5616;SDS011;2830;50.656;7.568;2024-02-26T10:12:44;4.83;;;3.00;;
5616;SDS011;2830;50.656;7.568;2024-02-26T10:15:10;3.83;;;2.07;;
5616;SDS011;2830;50.656;7.568;2024-02-26T10:17:38;3.90;;;1.93;;
5616;SDS011;2830;50.656;7.568;2024-02-26T10:22:40;4.10;;;2.33;;
5616;SDS011;2830;50.656;7.568;2024-02-26T10:25:10;4.60;;;2.10;;
5616;SDS011;2830;50.656;7.568;2024-02-26T10:27:37;2.53;;;1.73;;
5616;SDS011;2830;50.656;7.568;2024-02-26T10:30:04;2.60;;;1.90;;
5616;SDS011;2830;50.656;7.568;2024-02-26T10:32:45;3.47;;;1.77;;
5616;SDS011;2830;50.656;7.568;2024-02-26T10:35:16;3.97;;;2.30;;
5616;SDS011;2830;50.656;7.568;2024-02-26T10:37:53;2.77;;;2.20;;
5616;SDS011;2830;50.656;7.568;2024-02-26T10:40:20;3.70;;;2.20;;
5616;SDS011;2830;50.656;7.568;2024-02-26T10:42:47;2.20;;;1.60;;
5616;SDS011;2830;50.656;7.568;2024-02-26T10:45:14;3.10;;;1.90;;
5616;SDS011;2830;50.656;7.568;2024-02-26T10:47:41;3.37;;;2.30;;
5616;SDS011;2830;50.656;7.568;2024-02-26T10:50:09;3.27;;;2.40;;
5616;SDS011;2830;50.656;7.568;2024-02-26T10:52:36;5.80;;;2.67;;
5616;SDS011;2830;50.656;7.568;2024-02-26T10:55:04;11.00;;;2.50;;
5616;SDS011;2830;50.656;7.568;2024-02-26T10:57:35;3.50;;;2.43;;
5616;SDS011;2830;50.656;7.568;2024-02-26T11:00:06;4.40;;;2.20;;
5616;SDS011;2830;50.656;7.568;2024-02-26T11:02:37;6.10;;;2.40;;
5616;SDS011;2830;50.656;7.568;2024-02-26T11:05:05;3.40;;;2.33;;
5616;SDS011;2830;50.656;7.568;2024-02-26T11:07:34;6.20;;;2.90;;
5616;SDS011;2830;50.656;7.568;2024-02-26T11:10:03;5.40;;;2.80;;
5616;SDS011;2830;50.656;7.568;2024-02-26T11:12:31;5.60;;;2.47;;
5616;SDS011;2830;50.656;7.568;2024-02-26T11:15:02;7.13;;;2.90;;
5616;SDS011;2830;50.656;7.568;2024-02-26T11:17:29;4.27;;;2.90;;
5616;SDS011;2830;50.656;7.568;2024-02-26T11:19:58;3.77;;;2.37;;
5616;SDS011;2830;50.656;7.568;2024-02-26T11:22:29;3.63;;;2.80;;
5616;SDS011;2830;50.656;7.568;2024-02-26T11:24:56;4.13;;;2.90;;
5616;SDS011;2830;50.656;7.568;2024-02-26T11:27:25;5.43;;;2.63;;
5616;SDS011;2830;50.656;7.568;2024-02-26T11:29:57;5.30;;;3.00;;
5616;SDS011;2830;50.656;7.568;2024-02-26T11:32:27;4.20;;;2.37;;
5616;SDS011;2830;50.656;7.568;2024-02-26T11:35:00;3.63;;;2.40;;
5616;SDS011;2830;50.656;7.568;2024-02-26T11:37:27;3.20;;;2.33;;
5616;SDS011;2830;50.656;7.568;2024-02-26T11:39:54;4.83;;;2.93;;
5616;SDS011;2830;50.656;7.568;2024-02-26T11:42:24;4.00;;;2.07;;
5616;SDS011;2830;50.656;7.568;2024-02-26T11:44:56;3.80;;;1.97;;
5616;SDS011;2830;50.656;7.568;2024-02-26T11:47:27;3.60;;;2.30;;
5616;SDS011;2830;50.656;7.568;2024-02-26T11:49:55;6.20;;;4.00;;
5616;SDS011;2830;50.656;7.568;2024-02-26T11:52:22;5.10;;;2.60;;
5616;SDS011;2830;50.656;7.568;2024-02-26T11:54:49;6.87;;;3.17;;
5616;SDS011;2830;50.656;7.568;2024-02-26T12:00:18;8.50;;;4.63;;
5616;SDS011;2830;50.656;7.568;2024-02-26T12:02:50;6.40;;;3.20;;
5616;SDS011;2830;50.656;7.568;2024-02-26T12:05:25;3.77;;;2.67;;
5616;SDS011;2830;50.656;7.568;2024-02-26T12:08:05;3.80;;;2.50;;
5616;SDS011;2830;50.656;7.568;2024-02-26T12:10:35;3.83;;;2.53;;
5616;SDS011;2830;50.656;7.568;2024-02-26T12:13:10;4.93;;;2.10;;
5616;SDS011;2830;50.656;7.568;2024-02-26T12:18:18;3.60;;;2.17;;
5616;SDS011;2830;50.656;7.568;2024-02-26T12:20:47;2.80;;;2.03;;
5616;SDS011;2830;50.656;7.568;2024-02-26T12:23:25;4.33;;;2.80;;
5616;SDS011;2830;50.656;7.568;2024-02-26T12:25:54;3.97;;;2.20;;
5616;SDS011;2830;50.656;7.568;2024-02-26T12:28:31;3.10;;;1.93;;
5616;SDS011;2830;50.656;7.568;2024-02-26T12:30:58;8.40;;;2.20;;
5616;SDS011;2830;50.656;7.568;2024-02-26T12:33:26;4.00;;;2.30;;
5616;SDS011;2830;50.656;7.568;2024-02-26T12:35:55;3.00;;;1.90;;
5616;SDS011;2830;50.656;7.568;2024-02-26T12:38:22;2.73;;;1.90;;
5616;SDS011;2830;50.656;7.568;2024-02-26T12:41:00;3.40;;;3.10;;
5616;SDS011;2830;50.656;7.568;2024-02-26T12:43:27;4.40;;;2.73;;
5616;SDS011;2830;50.656;7.568;2024-02-26T12:45:54;4.03;;;1.90;;
5616;SDS011;2830;50.656;7.568;2024-02-26T12:48:21;3.80;;;3.23;;
5616;SDS011;2830;50.656;7.568;2024-02-26T12:50:48;3.23;;;1.80;;
5616;SDS011;2830;50.656;7.568;2024-02-26T12:53:15;3.43;;;2.30;;
5616;SDS011;2830;50.656;7.568;2024-02-26T12:55:42;2.90;;;2.13;;
5616;SDS011;2830;50.656;7.568;2024-02-26T12:58:09;3.67;;;2.50;;
5616;SDS011;2830;50.656;7.568;2024-02-26T13:00:38;2.23;;;1.47;;
5616;SDS011;2830;50.656;7.568;2024-02-26T13:03:05;3.00;;;2.10;;
5616;SDS011;2830;50.656;7.568;2024-02-26T13:05:32;2.93;;;2.00;;
5616;SDS011;2830;50.656;7.568;2024-02-26T13:08:00;3.50;;;2.77;;
5616;SDS011;2830;50.656;7.568;2024-02-26T13:10:31;5.80;;;2.20;;
5616;SDS011;2830;50.656;7.568;2024-02-26T13:12:58;3.20;;;2.10;;
5616;SDS011;2830;50.656;7.568;2024-02-26T13:15:28;4.53;;;2.70;;
5616;SDS011;2830;50.656;7.568;2024-02-26T13:17:55;4.00;;;2.27;;
5616;SDS011;2830;50.656;7.568;2024-02-26T13:20:29;6.70;;;3.57;;
5616;SDS011;2830;50.656;7.568;2024-02-26T13:23:04;7.93;;;4.03;;
5616;SDS011;2830;50.656;7.568;2024-02-26T13:25:36;5.77;;;3.17;;
5616;SDS011;2830;50.656;7.568;2024-02-26T13:28:14;5.50;;;2.63;;
5616;SDS011;2830;50.656;7.568;2024-02-26T13:30:54;6.03;;;3.60;;
5616;SDS011;2830;50.656;7.568;2024-02-26T13:33:24;5.37;;;3.10;;
5616;SDS011;2830;50.656;7.568;2024-02-26T13:35:53;4.07;;;2.40;;
5616;SDS011;2830;50.656;7.568;2024-02-26T13:38:23;3.87;;;3.10;;
5616;SDS011;2830;50.656;7.568;2024-02-26T13:40:51;2.47;;;2.10;;
5616;SDS011;2830;50.656;7.568;2024-02-26T13:43:18;3.40;;;2.17;;
5616;SDS011;2830;50.656;7.568;2024-02-26T13:45:46;3.10;;;1.93;;
5616;SDS011;2830;50.656;7.568;2024-02-26T13:48:13;2.27;;;1.57;;
5616;SDS011;2830;50.656;7.568;2024-02-26T13:50:42;2.40;;;1.47;;
5616;SDS011;2830;50.656;7.568;2024-02-26T13:53:11;2.83;;;1.93;;
5616;SDS011;2830;50.656;7.568;2024-02-26T13:55:39;3.17;;;2.20;;
5616;SDS011;2830;50.656;7.568;2024-02-26T13:58:09;5.20;;;4.00;;
5616;SDS011;2830;50.656;7.568;2024-02-26T14:00:39;5.50;;;3.87;;
5616;SDS011;2830;50.656;7.568;2024-02-26T14:03:09;3.43;;;2.80;;
5616;SDS011;2830;50.656;7.568;2024-02-26T14:05:36;3.67;;;2.47;;
5616;SDS011;2830;50.656;7.568;2024-02-26T14:08:03;2.60;;;1.80;;
5616;SDS011;2830;50.656;7.568;2024-02-26T14:10:31;3.97;;;2.27;;
5616;SDS011;2830;50.656;7.568;2024-02-26T14:12:58;4.37;;;2.97;;
5616;SDS011;2830;50.656;7.568;2024-02-26T14:15:26;4.57;;;2.77;;
5616;SDS011;2830;50.656;7.568;2024-02-26T14:17:55;3.70;;;2.60;;
5616;SDS011;2830;50.656;7.568;2024-02-26T14:20:25;3.67;;;2.43;;
5616;SDS011;2830;50.656;7.568;2024-02-26T14:22:53;5.97;;;3.47;;
5616;SDS011;2830;50.656;7.568;2024-02-26T14:25:20;4.60;;;3.20;;
5616;SDS011;2830;50.656;7.568;2024-02-26T14:27:48;4.77;;;2.70;;
5616;SDS011;2830;50.656;7.568;2024-02-26T14:30:15;4.83;;;2.83;;
5616;SDS011;2830;50.656;7.568;2024-02-26T14:32:42;3.67;;;2.70;;
5616;SDS011;2830;50.656;7.568;2024-02-26T14:35:10;3.20;;;2.13;;
5616;SDS011;2830;50.656;7.568;2024-02-26T14:37:43;3.83;;;2.30;;
5616;SDS011;2830;50.656;7.568;2024-02-26T14:40:14;2.90;;;2.23;;
5616;SDS011;2830;50.656;7.568;2024-02-26T14:42:41;3.27;;;1.90;;
5616;SDS011;2830;50.656;7.568;2024-02-26T14:45:08;6.07;;;2.23;;
5616;SDS011;2830;50.656;7.568;2024-02-26T14:47:36;3.53;;;2.07;;
5616;SDS011;2830;50.656;7.568;2024-02-26T14:50:04;3.23;;;2.30;;
5616;SDS011;2830;50.656;7.568;2024-02-26T14:52:31;3.20;;;1.90;;
5616;SDS011;2830;50.656;7.568;2024-02-26T14:54:58;3.87;;;2.10;;
5616;SDS011;2830;50.656;7.568;2024-02-26T14:57:25;5.37;;;3.00;;
5616;SDS011;2830;50.656;7.568;2024-02-26T14:59:53;5.57;;;2.60;;
5616;SDS011;2830;50.656;7.568;2024-02-26T15:02:19;3.13;;;2.10;;
5616;SDS011;2830;50.656;7.568;2024-02-26T15:04:46;2.70;;;2.23;;
5616;SDS011;2830;50.656;7.568;2024-02-26T15:07:14;2.70;;;1.87;;
5616;SDS011;2830;50.656;7.568;2024-02-26T15:09:42;7.00;;;1.97;;
5616;SDS011;2830;50.656;7.568;2024-02-26T15:12:09;4.43;;;2.60;;
5616;SDS011;2830;50.656;7.568;2024-02-26T15:14:37;3.47;;;2.40;;
5616;SDS011;2830;50.656;7.568;2024-02-26T15:17:05;4.37;;;2.73;;
5616;SDS011;2830;50.656;7.568;2024-02-26T15:19:36;4.90;;;3.37;;
5616;SDS011;2830;50.656;7.568;2024-02-26T15:22:04;5.50;;;2.70;;
5616;SDS011;2830;50.656;7.568;2024-02-26T15:24:31;7.83;;;4.40;;
5616;SDS011;2830;50.656;7.568;2024-02-26T15:26:57;3.73;;;2.87;;